Time,TemperatureF,DewpointF,PressureIn,WindDirection,WindDirectionDegrees,WindSpeedMPH,WindSpeedGustMPH,Humidity,HourlyPrecipIn,Conditions,Clouds,dailyrainin,SoftwareType,DateUTC
2013-09-12 00:01:00,68.0,54.0,-100.00,SSE,165,1.0,1.0,62,0.00,,,0.00,,2013-09-12 06:01:00,
2013-09-12 00:21:00,68.0,54.0,-100.00,SSE,165,2.0,5.0,60,0.00,,,0.00,,2013-09-12 06:21:00,
2013-09-12 00:33:00,68.0,54.0,-100.00,SSE,165,2.0,5.0,60,0.00,,,0.00,,2013-09-12 06:33:00,
2013-09-12 00:52:00,71.0,54.0,-100.00,SE,144,3.0,4.0,55,0.00,,,0.00,,2013-09-12 06:52:00,
2013-09-12 01:02:00,71.0,54.0,-100.00,SE,144,3.0,4.0,55,0.00,,,0.00,,2013-09-12 07:02:00,
2013-09-12 01:21:00,67.0,56.0,-100.00,South,186,7.0,10.0,69,0.00,,,0.01,,2013-09-12 07:21:00,
2013-09-12 01:32:00,67.0,56.0,-100.00,South,186,7.0,10.0,69,0.00,,,0.01,,2013-09-12 07:32:00,
2013-09-12 01:52:00,65.0,57.0,-100.00,SSW,193,1.0,2.0,77,0.00,,,0.01,,2013-09-12 07:52:00,
2013-09-12 02:02:00,65.0,57.0,-100.00,SSW,193,1.0,2.0,77,0.00,,,0.01,,2013-09-12 08:02:00,
2013-09-12 02:22:00,63.0,59.0,-100.00,NE,45,1.0,3.0,85,0.00,,,0.04,,2013-09-12 08:22:00,
2013-09-12 02:32:00,63.0,59.0,-100.00,NE,45,1.0,3.0,85,0.00,,,0.04,,2013-09-12 08:32:00,
2013-09-12 02:52:00,62.0,59.0,-100.00,NW,318,2.0,3.0,88,0.00,,,0.07,,2013-09-12 08:52:00,
2013-09-12 03:02:00,62.0,59.0,-100.00,NW,318,2.0,3.0,88,0.00,,,0.07,,2013-09-12 09:02:00,
2013-09-12 03:21:00,62.0,59.0,-100.00,ESE,112,3.0,4.0,89,0.00,,,0.07,,2013-09-12 09:21:00,
2013-09-12 03:33:00,62.0,59.0,-100.00,ESE,112,3.0,4.0,89,0.00,,,0.07,,2013-09-12 09:33:00,
2013-09-12 03:53:00,62.0,59.0,-100.00,NNE,32,1.0,2.0,91,0.00,,,0.07,,2013-09-12 09:53:00,
2013-09-12 04:03:00,62.0,59.0,-100.00,NNE,32,1.0,2.0,91,0.00,,,0.07,,2013-09-12 10:03:00,
2013-09-12 04:23:00,63.0,58.0,-100.00,ENE,73,3.0,3.0,86,0.00,,,0.07,,2013-09-12 10:23:00,
2013-09-12 04:33:00,63.0,58.0,-100.00,ENE,73,3.0,3.0,86,0.00,,,0.07,,2013-09-12 10:33:00,
2013-09-12 04:53:00,62.0,58.0,-100.00,North,359,3.0,4.0,87,0.00,,,0.07,,2013-09-12 10:53:00,
2013-09-12 05:03:00,62.0,58.0,-100.00,North,359,3.0,4.0,87,0.00,,,0.07,,2013-09-12 11:03:00,
2013-09-12 05:22:00,62.0,57.0,-100.00,East,93,2.0,4.0,83,0.00,,,0.07,,2013-09-12 11:22:00,
2013-09-12 05:33:00,62.0,57.0,-100.00,East,93,2.0,4.0,83,0.00,,,0.07,,2013-09-12 11:33:00,
2013-09-12 05:52:00,60.0,57.0,-100.00,SE,130,5.0,7.0,88,0.00,,,0.07,,2013-09-12 11:52:00,
2013-09-12 06:01:00,60.0,57.0,-100.00,SE,130,5.0,7.0,88,0.00,,,0.07,,2013-09-12 12:01:00,
2013-09-12 06:21:00,62.0,57.0,-100.00,East,92,2.0,5.0,84,0.00,,,0.07,,2013-09-12 12:21:00,
2013-09-12 06:31:00,62.0,57.0,-100.00,East,92,2.0,5.0,84,0.00,,,0.07,,2013-09-12 12:31:00,
2013-09-12 06:52:00,62.0,56.0,-100.00,SE,126,3.0,5.0,81,0.00,,,0.07,,2013-09-12 12:52:00,
2013-09-12 07:02:00,62.0,56.0,-100.00,SE,126,3.0,5.0,81,0.00,,,0.07,,2013-09-12 13:02:00,
2013-09-12 07:22:00,62.0,56.0,-100.00,SE,126,1.0,2.0,81,0.00,,,0.07,,2013-09-12 13:22:00,
2013-09-12 07:32:00,62.0,56.0,-100.00,SE,126,1.0,2.0,81,0.00,,,0.07,,2013-09-12 13:32:00,
2013-09-12 07:52:00,62.0,58.0,-100.00,East,90,2.0,2.0,87,0.00,,,0.07,,2013-09-12 13:52:00,
2013-09-12 08:02:00,62.0,58.0,-100.00,East,90,2.0,2.0,87,0.00,,,0.07,,2013-09-12 14:02:00,
2013-09-12 08:22:00,66.0,54.0,-100.00,East,97,2.0,4.0,66,0.00,,,0.07,,2013-09-12 14:22:00,
2013-09-12 08:32:00,66.0,54.0,-100.00,East,97,2.0,4.0,66,0.00,,,0.07,,2013-09-12 14:32:00,
2013-09-12 08:52:00,64.0,56.0,-100.00,East,92,4.0,5.0,75,0.00,,,0.07,,2013-09-12 14:52:00,
2013-09-12 09:02:00,64.0,56.0,-100.00,East,92,4.0,5.0,75,0.00,,,0.07,,2013-09-12 15:02:00,
2013-09-12 09:22:00,64.0,58.0,-100.00,SSW,209,3.0,4.0,79,0.00,,,0.07,,2013-09-12 15:22:00,
2013-09-12 09:33:00,64.0,58.0,-100.00,SSW,209,3.0,4.0,79,0.00,,,0.07,,2013-09-12 15:33:00,
2013-09-12 09:54:00,69.0,59.0,-100.00,SW,222,1.0,2.0,71,0.00,,,0.07,,2013-09-12 15:54:00,
2013-09-12 10:03:00,69.0,59.0,-100.00,SW,222,1.0,2.0,71,0.00,,,0.07,,2013-09-12 16:03:00,
2013-09-12 10:23:00,70.0,58.0,-100.00,NNW,337,1.0,2.0,66,0.00,,,0.07,,2013-09-12 16:23:00,
2013-09-12 10:33:00,70.0,58.0,-100.00,NNW,337,1.0,2.0,66,0.00,,,0.07,,2013-09-12 16:33:00,
2013-09-12 10:53:00,72.0,57.0,-100.00,West,267,2.0,3.0,59,0.00,,,0.07,,2013-09-12 16:53:00,
2013-09-12 11:03:00,72.0,57.0,-100.00,West,267,2.0,3.0,59,0.00,,,0.07,,2013-09-12 17:03:00,
2013-09-12 11:23:00,73.0,55.0,-100.00,SSE,165,4.0,7.0,53,0.00,,,0.07,,2013-09-12 17:23:00,
2013-09-12 11:33:00,73.0,55.0,-100.00,SSE,165,4.0,7.0,53,0.00,,,0.07,,2013-09-12 17:33:00,
2013-09-12 11:42:00,73.0,55.0,-100.00,SSE,165,4.0,7.0,53,0.00,,,0.07,,2013-09-12 17:42:00,
2013-09-12 12:12:00,76.0,54.0,-100.00,South,174,9.0,13.0,47,0.00,,,0.07,,2013-09-12 18:12:00,
2013-09-12 12:42:00,76.0,54.0,-100.00,South,178,13.0,16.0,46,0.00,,,0.07,,2013-09-12 18:42:00,
2013-09-12 13:12:00,74.0,54.0,-100.00,South,181,11.0,14.0,49,0.00,,,0.07,,2013-09-12 19:12:00,
2013-09-12 13:22:00,74.0,54.0,-100.00,South,181,11.0,14.0,49,0.00,,,0.07,,2013-09-12 19:22:00,
2013-09-12 13:42:00,77.0,52.0,-100.00,SSW,193,9.0,12.0,42,0.00,,,0.07,,2013-09-12 19:42:00,
2013-09-12 14:11:00,78.0,56.0,-100.00,SSW,195,8.0,10.0,47,0.00,,,0.07,,2013-09-12 20:11:00,
2013-09-12 14:42:00,80.0,57.0,-100.00,West,268,4.0,7.0,44,0.00,,,0.07,,2013-09-12 20:42:00,
2013-09-12 15:11:00,80.0,50.0,-100.00,South,188,7.0,14.0,35,0.00,,,0.07,,2013-09-12 21:11:00,
2013-09-12 15:43:00,80.0,52.0,-100.00,SE,133,9.0,14.0,37,0.00,,,0.07,,2013-09-12 21:43:00,
2013-09-12 16:13:00,78.0,53.0,-100.00,SSE,152,9.0,11.0,41,0.01,,,0.07,,2013-09-12 22:13:00,
2013-09-12 16:43:00,80.0,51.0,-100.00,South,175,9.0,15.0,37,0.00,,,0.07,,2013-09-12 22:43:00,
2013-09-12 17:12:00,80.0,52.0,-100.00,South,184,6.0,10.0,38,0.00,,,0.07,,2013-09-12 23:12:00,
2013-09-12 17:42:00,82.0,51.0,-100.00,South,176,8.0,11.0,34,0.00,,,0.07,,2013-09-12 23:42:00,
2013-09-12 18:11:00,81.0,49.0,-100.00,SE,144,7.0,13.0,33,0.00,,,0.07,,2013-09-13 00:11:00,
2013-09-12 18:42:00,81.0,50.0,-100.00,South,169,6.0,9.0,34,0.00,,,0.07,,2013-09-13 00:42:00,
2013-09-12 18:52:00,81.0,50.0,-100.00,South,169,6.0,9.0,34,0.00,,,0.07,,2013-09-13 00:52:00,
2013-09-12 19:11:00,79.0,49.0,-100.00,South,178,11.0,15.0,35,0.00,,,0.07,,2013-09-13 01:11:00,
2013-09-12 19:42:00,75.0,55.0,-100.00,SE,127,7.0,9.0,51,0.00,,,0.07,,2013-09-13 01:42:00,
2013-09-12 19:52:00,75.0,55.0,-100.00,SE,127,7.0,9.0,51,0.00,,,0.07,,2013-09-13 01:52:00,
2013-09-12 20:11:00,76.0,52.0,-100.00,SSE,162,6.0,8.0,43,0.00,,,0.07,,2013-09-13 02:11:00,
2013-09-12 20:43:00,72.0,53.0,-100.00,SE,131,8.0,11.0,51,0.00,,,0.07,,2013-09-13 02:43:00,
2013-09-12 21:11:00,72.0,49.0,-100.00,ESE,113,10.0,13.0,45,0.00,,,0.07,,2013-09-13 03:11:00,
2013-09-12 21:45:00,71.0,50.0,-100.00,SSE,152,6.0,8.0,48,0.00,,,0.07,,2013-09-13 03:45:00,
2013-09-12 22:14:00,69.0,51.0,-100.00,SSE,151,3.0,4.0,52,0.00,,,0.07,,2013-09-13 04:14:00,
2013-09-12 22:44:00,67.0,51.0,-100.00,SE,144,4.0,5.0,56,0.00,,,0.07,,2013-09-13 04:44:00,
2013-09-12 23:13:00,67.0,51.0,-100.00,SSW,195,3.0,5.0,57,0.00,,,0.07,,2013-09-13 05:13:00,
2013-09-12 23:30:00,63.0,52.0,-100.00,SE,143,5.0,6.0,66,0.00,,,0.07,,2013-09-13 05:30:00,
2013-09-12 23:43:00,66.0,52.0,-100.00,SE,134,0.0,0.0,61,0.00,,,0.07,,2013-09-13 05:43:00,